createdAt,value
2018-05-24T00:02:14.182Z,2.60
2018-05-24T00:04:42.395Z,2.77
2018-05-24T00:07:10.998Z,2.63
2018-05-24T00:09:39.214Z,3.13
2018-05-24T00:12:07.454Z,3.00
2018-05-24T00:14:35.771Z,2.53
2018-05-24T00:17:04.015Z,3.00
2018-05-24T00:19:33.246Z,2.60
2018-05-24T00:22:01.510Z,2.67
2018-05-24T00:24:29.899Z,2.90
2018-05-24T00:26:58.162Z,2.87
2018-05-24T00:29:26.386Z,2.77
2018-05-24T00:31:54.623Z,2.63
2018-05-24T00:34:22.835Z,2.60
2018-05-24T00:36:51.073Z,3.53
2018-05-24T00:39:19.296Z,2.70
2018-05-24T00:41:47.716Z,2.73
2018-05-24T00:44:16.704Z,2.70
2018-05-24T00:46:45.719Z,2.60
2018-05-24T00:49:13.990Z,2.93
2018-05-24T00:51:42.224Z,2.97
2018-05-24T00:54:11.463Z,2.27
2018-05-24T00:56:39.722Z,3.10
2018-05-24T00:59:08.119Z,2.57
2018-05-24T01:01:36.351Z,2.53
2018-05-24T01:04:04.558Z,2.73
2018-05-24T01:06:32.927Z,2.77
2018-05-24T01:09:01.143Z,2.63
2018-05-24T01:11:29.415Z,2.80
2018-05-24T01:13:57.746Z,2.60
2018-05-24T01:16:26.134Z,2.70
2018-05-24T01:18:54.350Z,2.20
2018-05-24T01:21:22.639Z,3.63
2018-05-24T01:23:50.854Z,2.50
2018-05-24T01:26:19.070Z,2.80
2018-05-24T01:28:47.531Z,2.50
2018-05-24T01:31:15.778Z,2.83
2018-05-24T01:33:44.205Z,2.90
2018-05-24T01:36:12.674Z,2.77
2018-05-24T01:38:40.926Z,2.50
2018-05-24T01:41:09.427Z,2.70
2018-05-24T01:43:37.810Z,2.60
2018-05-24T01:46:06.087Z,2.60
2018-05-24T01:48:34.443Z,2.40
2018-05-24T01:51:02.667Z,1.90
2018-05-24T01:53:30.909Z,2.77
2018-05-24T01:55:59.259Z,2.50
2018-05-24T01:58:27.507Z,2.60
2018-05-24T02:00:55.723Z,2.20
2018-05-24T02:03:23.955Z,2.70
2018-05-24T02:05:52.170Z,2.60
2018-05-24T02:08:20.585Z,2.23
2018-05-24T02:10:48.914Z,2.60
2018-05-24T02:13:17.303Z,2.43
2018-05-24T02:15:45.527Z,3.47
2018-05-24T02:18:13.874Z,2.30
2018-05-24T02:20:42.163Z,2.23
2018-05-24T02:23:11.242Z,2.50
2018-05-24T02:25:39.526Z,2.03
2018-05-24T02:28:08.001Z,2.40
2018-05-24T02:30:36.280Z,2.40
2018-05-24T02:33:04.758Z,2.50
2018-05-24T02:35:33.006Z,2.30
2018-05-24T02:38:01.403Z,2.60
2018-05-24T02:40:29.623Z,2.40
2018-05-24T02:42:57.888Z,2.40
2018-05-24T02:45:26.210Z,2.70
2018-05-24T02:47:54.443Z,2.30
2018-05-24T02:50:22.795Z,2.27
2018-05-24T02:52:51.033Z,2.70
2018-05-24T02:55:19.248Z,2.43
2018-05-24T02:57:47.524Z,2.30
2018-05-24T03:00:15.888Z,2.33
2018-05-24T03:02:44.104Z,2.47
2018-05-24T03:05:12.759Z,2.50
2018-05-24T03:07:41.071Z,2.80
2018-05-24T03:10:09.400Z,2.30
2018-05-24T03:12:37.624Z,2.03
2018-05-24T03:15:05.968Z,2.73
2018-05-24T03:17:34.184Z,2.40
2018-05-24T03:20:02.419Z,2.00
2018-05-24T03:22:30.646Z,2.87
2018-05-24T03:24:58.870Z,2.10
2018-05-24T03:27:27.095Z,2.00
2018-05-24T03:29:55.323Z,2.43
2018-05-24T03:32:23.692Z,2.50
2018-05-24T03:34:51.987Z,2.30
2018-05-24T03:37:20.203Z,1.97
2018-05-24T03:39:48.435Z,2.23
2018-05-24T03:42:16.656Z,2.17
2018-05-24T03:44:44.887Z,2.30
2018-05-24T03:47:13.254Z,3.03
2018-05-24T03:49:41.722Z,2.30
2018-05-24T03:52:10.016Z,1.80
2018-05-24T03:54:39.095Z,2.30
2018-05-24T03:57:08.080Z,1.80
2018-05-24T04:02:50.830Z,1.90
2018-05-24T04:05:19.307Z,2.00
2018-05-24T04:07:47.551Z,2.17
2018-05-24T04:10:15.791Z,2.50
2018-05-24T04:12:44.008Z,2.47
2018-05-24T04:15:12.995Z,2.73
2018-05-24T04:17:41.223Z,2.17
2018-05-24T04:20:09.478Z,2.53
2018-05-24T04:22:37.843Z,2.20
2018-05-24T04:25:06.334Z,3.37
2018-05-24T04:27:34.595Z,2.17
2018-05-24T04:30:02.818Z,2.27
2018-05-24T04:32:31.047Z,2.30
2018-05-24T04:34:59.259Z,2.60
2018-05-24T04:37:27.500Z,2.40
2018-05-24T04:39:55.723Z,2.50
2018-05-24T04:42:23.951Z,2.17
2018-05-24T04:44:52.439Z,2.60
2018-05-24T04:47:20.698Z,2.20
2018-05-24T04:49:49.198Z,2.20
2018-05-24T04:52:17.548Z,2.70
2018-05-24T04:54:45.823Z,2.27
2018-05-24T04:57:14.055Z,2.13
2018-05-24T04:59:42.269Z,3.27
2018-05-24T05:02:10.670Z,2.30
2018-05-24T05:04:39.779Z,2.23
2018-05-24T05:07:08.059Z,2.40
2018-05-24T05:09:36.271Z,2.07
2018-05-24T05:12:04.487Z,1.97
2018-05-24T05:14:32.923Z,2.27
2018-05-24T05:17:01.084Z,1.93
2018-05-24T05:19:29.407Z,2.50
2018-05-24T05:21:57.711Z,1.77
2018-05-24T05:24:26.070Z,2.30
2018-05-24T05:26:54.426Z,2.20
2018-05-24T05:29:22.658Z,2.03
2018-05-24T05:31:50.881Z,2.63
2018-05-24T05:34:19.111Z,3.40
2018-05-24T05:36:47.335Z,2.53
2018-05-24T05:39:15.572Z,2.43
2018-05-24T05:41:43.791Z,2.97
2018-05-24T05:44:12.026Z,2.27
2018-05-24T05:46:40.243Z,3.07
2018-05-24T05:49:08.662Z,2.50
2018-05-24T05:51:37.026Z,3.33
2018-05-24T05:54:05.418Z,2.80
2018-05-24T05:56:33.879Z,2.87
2018-05-24T05:59:02.116Z,2.53
2018-05-24T06:01:30.539Z,2.87
2018-05-24T06:03:59.014Z,2.87
2018-05-24T06:06:27.232Z,3.10
2018-05-24T06:08:55.462Z,2.90
2018-05-24T06:11:23.786Z,3.30
2018-05-24T06:13:52.098Z,3.77
2018-05-24T06:16:20.251Z,5.87
2018-05-24T06:18:48.467Z,4.00
2018-05-24T06:21:16.698Z,5.17
2018-05-24T06:23:45.145Z,3.73
2018-05-24T06:26:14.633Z,6.87
2018-05-24T06:28:43.097Z,3.97
2018-05-24T06:31:12.098Z,4.33
2018-05-24T06:33:40.543Z,5.07
2018-05-24T06:36:08.806Z,5.87
2018-05-24T06:38:37.018Z,6.87
2018-05-24T06:41:05.395Z,6.40
2018-05-24T06:43:33.633Z,11.90
2018-05-24T06:46:02.938Z,6.37
2018-05-24T06:48:31.161Z,7.43
2018-05-24T06:50:59.565Z,8.70
2018-05-24T06:53:27.836Z,42.07
2018-05-24T06:55:56.078Z,44.23
2018-05-24T06:58:25.262Z,33.60
2018-05-24T07:00:53.496Z,24.57
2018-05-24T07:03:21.720Z,20.17
2018-05-24T07:05:50.258Z,36.13
2018-05-24T07:08:20.066Z,24.03
2018-05-24T07:10:48.515Z,48.43
2018-05-24T07:13:16.744Z,45.53
2018-05-24T07:15:44.987Z,56.77
2018-05-24T07:18:13.974Z,83.82
2018-05-24T07:20:42.224Z,221.70
2018-05-24T07:23:10.618Z,204.10
2018-05-24T07:25:39.006Z,155.47
2018-05-24T07:28:07.243Z,117.57
2018-05-24T07:30:35.482Z,90.07
2018-05-24T07:33:03.732Z,81.77
2018-05-24T07:35:31.946Z,59.53
2018-05-24T07:38:00.190Z,51.83
2018-05-24T07:40:28.410Z,47.77
2018-05-24T07:42:57.414Z,38.50
2018-05-24T07:45:26.397Z,36.85
2018-05-24T07:47:55.422Z,32.57
2018-05-24T07:50:23.642Z,27.67
2018-05-24T07:52:51.882Z,30.37
2018-05-24T07:55:20.243Z,28.27
2018-05-24T07:57:48.507Z,26.47
2018-05-24T08:00:16.906Z,20.00
2018-05-24T08:02:45.174Z,20.27
2018-05-24T08:05:13.396Z,21.47
2018-05-24T08:07:41.634Z,17.17
2018-05-24T08:10:09.841Z,11.70
2018-05-24T08:12:38.299Z,13.27
2018-05-24T08:15:06.499Z,16.67
2018-05-24T08:17:34.723Z,13.43
2018-05-24T08:20:02.947Z,12.50
2018-05-24T08:22:31.303Z,13.40
2018-05-24T08:24:59.551Z,10.73
2018-05-24T08:27:27.787Z,12.87
2018-05-24T08:29:56.306Z,9.17
2018-05-24T08:32:24.557Z,9.27
2018-05-24T08:34:52.913Z,14.70
2018-05-24T08:37:21.181Z,32.63
2018-05-24T08:39:49.410Z,35.30
2018-05-24T08:42:17.679Z,25.33
2018-05-24T08:44:45.909Z,36.50
2018-05-24T08:47:15.197Z,29.35
2018-05-24T08:49:43.399Z,19.33
2018-05-24T08:52:11.950Z,17.70
2018-05-24T08:54:40.206Z,13.77
2018-05-24T08:57:08.677Z,18.80
2018-05-24T08:59:36.921Z,13.47
2018-05-24T09:02:05.139Z,9.67
2018-05-24T09:04:33.382Z,9.40
2018-05-24T09:07:01.902Z,12.43
2018-05-24T09:09:30.171Z,10.20
2018-05-24T09:11:58.557Z,12.20
2018-05-24T09:14:27.021Z,14.95
2018-05-24T09:16:55.255Z,8.37
2018-05-24T09:19:23.491Z,7.33
2018-05-24T09:21:51.724Z,8.47
2018-05-24T09:24:20.210Z,7.77
2018-05-24T09:26:48.463Z,6.67
2018-05-24T09:29:16.746Z,8.07
2018-05-24T09:31:44.910Z,12.47
2018-05-24T09:34:13.134Z,10.07
2018-05-24T09:36:41.367Z,67.62
2018-05-24T09:39:10.027Z,42.10
2018-05-24T09:41:38.368Z,36.43
2018-05-24T09:44:06.575Z,61.67
2018-05-24T09:46:34.797Z,54.90
2018-05-24T09:49:03.029Z,55.70
2018-05-24T09:51:31.245Z,51.17
2018-05-24T09:53:59.683Z,52.30
2018-05-24T09:56:28.206Z,81.93
2018-05-24T09:58:57.201Z,48.77
2018-05-24T10:01:25.578Z,107.03
2018-05-24T10:03:54.553Z,95.20
2018-05-24T10:06:24.068Z,130.77
2018-05-24T10:08:53.770Z,176.83
2018-05-24T10:11:22.954Z,157.93
2018-05-24T10:13:51.302Z,131.50
2018-05-24T10:16:19.577Z,133.50
2018-05-24T10:18:47.823Z,116.70
2018-05-24T10:21:21.678Z,115.87
2018-05-24T10:23:49.927Z,93.10
2018-05-24T10:26:18.148Z,93.40
2018-05-24T10:28:46.383Z,77.20
2018-05-24T10:31:14.624Z,73.83
2018-05-24T10:33:47.679Z,75.17
2018-05-24T10:36:17.272Z,63.43
2018-05-24T10:38:45.561Z,58.60
2018-05-24T10:41:14.142Z,66.00
2018-05-24T10:43:42.434Z,57.00
2018-05-24T10:46:10.753Z,53.50
2018-05-24T10:48:39.090Z,51.57
2018-05-24T10:51:07.341Z,39.10
2018-05-24T10:53:35.838Z,30.20
2018-05-24T10:56:04.105Z,30.93
2018-05-24T10:58:32.314Z,21.80
2018-05-24T11:01:00.538Z,23.00
2018-05-24T11:03:28.763Z,17.93
2018-05-24T11:05:57.114Z,15.27
2018-05-24T11:08:25.339Z,16.73
2018-05-24T11:10:53.691Z,14.00
2018-05-24T11:13:21.907Z,11.07
2018-05-24T11:15:50.142Z,11.90
2018-05-24T11:18:18.371Z,9.67
2018-05-24T11:20:46.878Z,11.07
2018-05-24T11:23:16.808Z,7.33
2018-05-24T11:25:45.054Z,9.67
2018-05-24T11:28:13.414Z,8.53
2018-05-24T11:30:41.635Z,10.70
2018-05-24T11:33:09.850Z,13.57
2018-05-24T11:35:38.089Z,8.10
2018-05-24T11:38:06.418Z,7.53
2018-05-24T11:40:34.751Z,7.23
2018-05-24T11:43:03.125Z,7.00
2018-05-24T11:45:31.579Z,9.00
2018-05-24T11:48:00.562Z,10.27
2018-05-24T11:50:29.574Z,8.97
2018-05-24T11:52:57.851Z,6.20
2018-05-24T11:55:26.210Z,8.53
2018-05-24T11:57:54.426Z,15.67
2018-05-24T12:00:22.782Z,10.63
2018-05-24T12:02:51.022Z,7.27
2018-05-24T12:05:19.255Z,7.70
2018-05-24T12:07:48.782Z,8.87
2018-05-24T12:10:18.139Z,6.77
2018-05-24T12:12:46.355Z,5.83
2018-05-24T12:15:14.602Z,5.37
2018-05-24T12:17:42.891Z,6.57
2018-05-24T12:20:11.210Z,6.27
2018-05-24T12:22:39.511Z,5.90
2018-05-24T12:25:07.743Z,7.50
2018-05-24T12:27:35.958Z,6.87
2018-05-24T12:30:04.190Z,4.97
2018-05-24T12:32:32.482Z,6.37
2018-05-24T12:35:00.873Z,5.30
2018-05-24T12:37:29.270Z,5.70
2018-05-24T12:39:57.635Z,8.37
2018-05-24T12:42:25.845Z,5.30
2018-05-24T12:44:54.207Z,6.67
2018-05-24T12:47:22.508Z,8.80
2018-05-24T12:49:50.758Z,4.93
2018-05-24T12:52:18.975Z,6.43
2018-05-24T12:54:47.402Z,9.00
2018-05-24T12:57:15.666Z,6.97
2018-05-24T12:59:44.773Z,8.37
2018-05-24T13:02:13.143Z,5.27
2018-05-24T13:04:42.135Z,7.37
2018-05-24T13:07:11.123Z,5.73
2018-05-24T13:09:40.298Z,9.77
2018-05-24T13:12:08.517Z,6.00
2018-05-24T13:14:36.725Z,6.50
2018-05-24T13:17:05.204Z,6.50
2018-05-24T13:19:33.536Z,8.47
2018-05-24T13:22:01.784Z,6.10
2018-05-24T13:24:31.017Z,5.53
2018-05-24T13:26:59.280Z,6.17
2018-05-24T13:29:27.634Z,7.47
2018-05-24T13:31:56.026Z,5.97
2018-05-24T13:34:24.252Z,5.90
2018-05-24T13:36:52.480Z,7.97
2018-05-24T13:39:20.975Z,9.17
2018-05-24T13:41:49.219Z,47.13
2018-05-24T13:44:18.354Z,29.43
2018-05-24T13:46:46.793Z,23.93
2018-05-24T13:49:16.045Z,106.33
2018-05-24T13:51:44.299Z,413.67
2018-05-24T13:54:12.655Z,133.90
2018-05-24T13:56:41.078Z,140.13
2018-05-24T13:59:09.442Z,116.37
2018-05-24T14:01:37.762Z,82.53
2018-05-24T14:04:05.987Z,103.73
2018-05-24T14:06:34.284Z,70.70
2018-05-24T14:09:02.651Z,86.93
2018-05-24T14:11:31.106Z,67.90
2018-05-24T14:14:00.290Z,63.30
2018-05-24T14:16:28.541Z,61.47
2018-05-24T14:18:56.861Z,51.67
2018-05-24T14:21:25.175Z,35.63
2018-05-24T14:23:53.390Z,32.87
2018-05-24T14:26:21.629Z,26.17
2018-05-24T14:28:49.933Z,20.73
2018-05-24T14:31:18.448Z,19.93
2018-05-24T14:33:46.731Z,22.77
2018-05-24T14:36:15.210Z,19.50
2018-05-24T14:38:43.442Z,15.77
2018-05-24T14:41:11.682Z,17.30
2018-05-24T14:43:39.906Z,19.03
2018-05-24T14:46:08.141Z,20.83
2018-05-24T14:48:36.370Z,17.80
2018-05-24T14:51:04.857Z,14.87
2018-05-24T14:53:33.102Z,15.30
2018-05-24T14:56:01.344Z,18.77
2018-05-24T14:58:29.708Z,11.53
2018-05-24T15:00:58.071Z,17.40
2018-05-24T15:03:26.441Z,13.80
2018-05-24T15:05:54.695Z,14.03
2018-05-24T15:08:25.359Z,17.97
2018-05-24T15:10:53.587Z,12.70
2018-05-24T15:13:33.542Z,9.17
2018-05-24T15:16:01.809Z,14.90
2018-05-24T15:18:30.215Z,13.43
2018-05-24T15:20:58.614Z,12.30
2018-05-24T15:23:26.844Z,10.00
2018-05-24T15:25:55.075Z,22.57
2018-05-24T15:28:23.355Z,13.90
2018-05-24T15:30:51.589Z,10.90
2018-05-24T15:33:20.435Z,8.67
2018-05-24T15:35:48.751Z,11.23
2018-05-24T15:38:24.418Z,9.87
2018-05-24T15:40:52.644Z,8.57
2018-05-24T15:43:20.898Z,8.20
2018-05-24T15:45:49.115Z,8.07
2018-05-24T15:48:17.440Z,9.37
2018-05-24T15:50:45.648Z,8.27
2018-05-24T15:53:13.874Z,7.83
2018-05-24T15:55:43.184Z,8.30
2018-05-24T15:58:13.469Z,9.47
2018-05-24T16:00:41.735Z,7.73
2018-05-24T16:03:09.962Z,10.30
2018-05-24T16:05:40.773Z,8.43
2018-05-24T16:08:08.993Z,8.23
2018-05-24T16:10:37.395Z,11.70
2018-05-24T16:13:05.589Z,10.20
2018-05-24T16:15:34.767Z,9.03
2018-05-24T16:18:03.274Z,8.53
2018-05-24T16:20:32.510Z,10.13
2018-05-24T16:23:00.843Z,9.73
2018-05-24T16:25:29.329Z,14.73
2018-05-24T16:27:57.554Z,12.83
2018-05-24T16:30:26.325Z,12.90
2018-05-24T16:32:54.718Z,11.07
2018-05-24T16:35:30.693Z,10.80
2018-05-24T16:37:58.927Z,13.67
2018-05-24T16:40:28.815Z,10.43
2018-05-24T16:42:58.641Z,10.40
2018-05-24T16:45:26.978Z,10.57
2018-05-24T16:47:55.374Z,13.20
2018-05-24T16:50:23.774Z,10.17
2018-05-24T16:52:51.994Z,9.23
2018-05-24T16:55:20.323Z,11.70
2018-05-24T16:57:48.560Z,11.13
2018-05-24T17:00:16.937Z,9.83
2018-05-24T17:02:45.158Z,8.27
2018-05-24T17:05:13.384Z,9.37
2018-05-24T17:07:41.602Z,10.20
2018-05-24T17:10:09.854Z,7.77
2018-05-24T17:12:38.243Z,7.87
2018-05-24T17:15:06.734Z,10.50
2018-05-24T17:17:35.309Z,7.67
2018-05-24T17:20:05.950Z,8.90
2018-05-24T17:22:35.427Z,7.50
2018-05-24T17:25:03.802Z,8.07
2018-05-24T17:27:32.009Z,7.47
2018-05-24T17:30:00.266Z,8.13
2018-05-24T17:32:28.483Z,8.40
2018-05-24T17:34:56.715Z,7.80
2018-05-24T17:37:27.031Z,7.83
2018-05-24T17:39:56.021Z,9.57
2018-05-24T17:42:24.993Z,7.00
2018-05-24T17:44:53.298Z,6.73
2018-05-24T17:47:21.515Z,8.43
2018-05-24T17:49:49.734Z,8.87
2018-05-24T17:52:18.246Z,6.60
2018-05-24T17:54:46.465Z,6.83
2018-05-24T17:57:14.690Z,9.33
2018-05-24T17:59:42.977Z,7.13
2018-05-24T18:02:11.192Z,6.73
2018-05-24T18:04:39.517Z,8.23
2018-05-24T18:07:07.762Z,6.50
2018-05-24T18:09:36.001Z,8.27
2018-05-24T18:12:04.321Z,7.00
2018-05-24T18:14:33.337Z,6.50
2018-05-24T18:17:01.727Z,6.67
2018-05-24T18:19:31.962Z,7.57
2018-05-24T18:22:00.184Z,6.90
2018-05-24T18:24:28.410Z,6.20
2018-05-24T18:26:56.621Z,8.77
2018-05-24T18:29:25.036Z,7.17
2018-05-24T18:31:53.394Z,7.53
2018-05-24T18:34:21.627Z,6.17
2018-05-24T18:36:49.982Z,6.50
2018-05-24T18:39:18.250Z,7.17
2018-05-24T18:41:46.616Z,6.43
2018-05-24T18:44:14.838Z,6.00
2018-05-24T18:46:43.706Z,6.87
2018-05-24T18:49:12.067Z,6.73
2018-05-24T18:51:40.422Z,6.43
2018-05-24T18:54:08.658Z,6.50
2018-05-24T18:56:36.974Z,7.47
2018-05-24T18:59:05.396Z,6.40
2018-05-24T19:01:33.819Z,7.03
2018-05-24T19:04:02.048Z,6.33
2018-05-24T19:06:30.503Z,6.40
2018-05-24T19:08:59.488Z,7.37
2018-05-24T19:11:27.721Z,6.73
2018-05-24T19:13:55.939Z,6.20
2018-05-24T19:16:24.230Z,7.47
2018-05-24T19:18:52.447Z,6.07
2018-05-24T19:21:20.678Z,7.73
2018-05-24T19:23:48.885Z,6.83
2018-05-24T19:26:17.762Z,6.53
2018-05-24T19:28:52.109Z,5.67
2018-05-24T19:31:20.329Z,6.40
2018-05-24T19:33:48.695Z,6.57
2018-05-24T19:36:18.710Z,6.00
2018-05-24T19:38:46.912Z,6.23
2018-05-24T19:41:15.135Z,5.57
2018-05-24T19:43:43.380Z,6.30
2018-05-24T19:46:11.570Z,5.83
2018-05-24T19:48:39.791Z,6.10
2018-05-24T19:51:08.095Z,6.03
2018-05-24T19:53:36.366Z,6.47
2018-05-24T19:56:04.754Z,6.27
2018-05-24T19:58:33.086Z,6.10
2018-05-24T20:01:01.527Z,6.23
2018-05-24T20:03:29.878Z,5.90
2018-05-24T20:05:58.357Z,5.80
2018-05-24T20:08:27.335Z,6.33
2018-05-24T20:10:57.875Z,5.77
2018-05-24T20:13:26.861Z,5.77
2018-05-24T20:15:55.865Z,6.30
2018-05-24T20:18:24.846Z,5.97
2018-05-24T20:20:53.833Z,5.77
2018-05-24T20:23:22.819Z,5.80
2018-05-24T20:25:51.093Z,5.80
2018-05-24T20:28:19.310Z,5.17
2018-05-24T20:30:47.585Z,5.70
2018-05-24T20:33:17.893Z,5.80
2018-05-24T20:35:46.525Z,5.83
2018-05-24T20:38:14.742Z,5.60
2018-05-24T20:40:43.026Z,5.80
2018-05-24T20:43:12.190Z,5.70
2018-05-24T20:45:43.106Z,5.70
2018-05-24T20:48:11.313Z,5.93
2018-05-24T20:50:39.534Z,6.20
2018-05-24T20:53:08.003Z,6.23
2018-05-24T20:55:36.226Z,5.93
2018-05-24T20:58:04.454Z,5.73
2018-05-24T21:00:32.819Z,5.00
2018-05-24T21:03:01.814Z,5.47
2018-05-24T21:05:31.021Z,5.67
2018-05-24T21:07:59.238Z,5.30
2018-05-24T21:10:27.478Z,5.57
2018-05-24T21:12:55.814Z,5.33
2018-05-24T21:15:24.183Z,5.40
2018-05-24T21:17:52.706Z,5.93
2018-05-24T21:20:20.985Z,5.20
2018-05-24T21:22:49.161Z,5.07
2018-05-24T21:25:17.382Z,5.63
2018-05-24T21:27:45.915Z,5.60
2018-05-24T21:30:14.209Z,5.27
2018-05-24T21:32:42.550Z,6.00
2018-05-24T21:35:11.051Z,5.40
2018-05-24T21:37:39.287Z,5.03
2018-05-24T21:40:07.672Z,5.10
2018-05-24T21:42:36.108Z,5.20
2018-05-24T21:45:04.593Z,5.50
2018-05-24T21:47:32.786Z,5.93
2018-05-24T21:50:01.015Z,5.57
2018-05-24T21:52:29.242Z,5.63
2018-05-24T21:54:57.558Z,5.40
2018-05-24T21:57:26.763Z,5.47
2018-05-24T21:59:54.983Z,5.00
2018-05-24T22:02:23.214Z,5.03
2018-05-24T22:04:51.435Z,5.30
2018-05-24T22:07:19.662Z,5.47
2018-05-24T22:09:47.878Z,5.20
2018-05-24T22:12:16.111Z,5.77
2018-05-24T22:14:44.327Z,5.33
2018-05-24T22:17:12.596Z,5.20
2018-05-24T22:19:40.921Z,5.90
2018-05-24T22:22:09.934Z,4.83
2018-05-24T22:24:38.310Z,5.50
2018-05-24T22:27:06.560Z,4.93
2018-05-24T22:29:34.980Z,5.83
2018-05-24T22:32:06.144Z,5.50
2018-05-24T22:34:34.370Z,5.43
2018-05-24T22:37:02.588Z,4.90
2018-05-24T22:39:30.920Z,5.53
2018-05-24T22:42:00.050Z,5.43
2018-05-24T22:44:28.358Z,5.00
2018-05-24T22:46:56.575Z,5.10
2018-05-24T22:49:24.810Z,5.20
2018-05-24T22:51:53.022Z,5.07
2018-05-24T22:54:21.254Z,5.20
2018-05-24T22:56:49.555Z,5.17
2018-05-24T22:59:18.068Z,5.83
2018-05-24T23:01:46.282Z,5.20
2018-05-24T23:04:14.515Z,5.63
2018-05-24T23:06:42.763Z,5.20
2018-05-24T23:09:11.273Z,5.30
2018-05-24T23:11:39.513Z,5.33
2018-05-24T23:14:07.910Z,4.83
2018-05-24T23:16:36.410Z,4.60
2018-05-24T23:19:04.651Z,5.23
2018-05-24T23:21:32.867Z,5.73
2018-05-24T23:24:01.802Z,4.73
2018-05-24T23:26:30.222Z,5.37
2018-05-24T23:28:59.530Z,5.33
2018-05-24T23:31:27.854Z,5.17
2018-05-24T23:33:56.287Z,4.90
2018-05-24T23:36:24.550Z,5.40
2018-05-24T23:38:53.048Z,5.03
2018-05-24T23:41:21.423Z,4.50
2018-05-24T23:43:49.754Z,5.20
2018-05-24T23:46:18.183Z,5.10
2018-05-24T23:48:46.402Z,5.30
2018-05-24T23:51:14.939Z,4.83
2018-05-24T23:53:43.154Z,4.80
2018-05-24T23:56:11.575Z,4.50
2018-05-24T23:58:39.971Z,5.33
